createdAt,value
2019-06-20T00:04:01.630Z,20.10
2019-06-20T00:09:08.164Z,20.00
2019-06-20T00:14:13.519Z,20.00
2019-06-20T00:19:18.841Z,19.90
2019-06-20T00:24:24.222Z,19.80
2019-06-20T00:29:29.601Z,19.70
2019-06-20T00:34:34.979Z,19.60
2019-06-20T00:39:41.000Z,19.60
2019-06-20T00:44:46.321Z,19.40
2019-06-20T00:49:51.687Z,19.40
2019-06-20T00:54:57.007Z,19.30
2019-06-20T01:00:02.362Z,19.10
2019-06-20T01:05:07.764Z,18.90
2019-06-20T01:10:13.732Z,19.30
2019-06-20T01:15:19.213Z,19.50
2019-06-20T01:20:25.731Z,19.50
2019-06-20T01:25:40.006Z,19.30
2019-06-20T01:30:45.330Z,18.80
2019-06-20T01:35:50.667Z,16.10
2019-06-20T01:40:56.020Z,18.70
2019-06-20T01:46:01.343Z,19.00
2019-06-20T01:51:06.709Z,19.10
2019-06-20T01:56:12.022Z,19.30
2019-06-20T02:01:17.407Z,19.30
2019-06-20T02:06:22.817Z,19.20
2019-06-20T02:11:28.147Z,19.20
2019-06-20T02:16:33.526Z,19.20
2019-06-20T02:21:38.908Z,19.10
2019-06-20T02:26:44.251Z,19.10
2019-06-20T02:31:49.588Z,19.20
2019-06-20T02:36:54.910Z,19.20
2019-06-20T02:42:00.245Z,19.10
2019-06-20T02:47:05.560Z,18.90
2019-06-20T02:52:10.922Z,19.10
2019-06-20T02:57:16.272Z,19.20
2019-06-20T03:02:21.602Z,19.20
2019-06-20T03:07:26.940Z,19.10
2019-06-20T03:12:32.276Z,19.10
2019-06-20T03:17:37.659Z,18.90
2019-06-20T03:22:42.987Z,18.90
2019-06-20T03:27:48.341Z,19.00
2019-06-20T03:32:53.693Z,19.20
2019-06-20T03:37:59.031Z,19.10
2019-06-20T03:43:04.376Z,19.10
2019-06-20T03:48:09.706Z,19.30
2019-06-20T03:53:15.041Z,19.30
2019-06-20T03:58:20.343Z,19.50
2019-06-20T04:03:25.623Z,19.50
2019-06-20T04:08:30.960Z,19.50
2019-06-20T04:13:36.336Z,19.50
2019-06-20T04:18:41.707Z,19.50
2019-06-20T04:23:47.072Z,19.60
2019-06-20T04:28:52.410Z,19.70
2019-06-20T04:33:57.740Z,19.60
2019-06-20T04:39:18.435Z,19.70
2019-06-20T04:44:10.250Z,19.50
2019-06-20T04:49:15.595Z,19.30
2019-06-20T04:54:20.931Z,19.00
2019-06-20T04:59:26.249Z,19.20
2019-06-20T05:04:31.601Z,18.80
2019-06-20T05:09:36.983Z,18.90
2019-06-20T05:14:42.337Z,19.10
2019-06-20T05:19:47.942Z,19.80
2019-06-20T05:24:53.208Z,20.00
2019-06-20T05:29:58.554Z,19.70
2019-06-20T05:35:04.555Z,19.90
2019-06-20T05:40:10.111Z,19.80
2019-06-20T05:45:16.012Z,19.90
2019-06-20T05:50:22.045Z,20.20
2019-06-20T05:55:27.894Z,20.10
2019-06-20T06:00:33.220Z,19.60
2019-06-20T06:05:38.576Z,19.50
2019-06-20T06:10:43.955Z,19.50
2019-06-20T06:15:49.447Z,19.80
2019-06-20T06:20:54.864Z,20.00
2019-06-20T06:26:00.187Z,19.90
2019-06-20T06:31:05.512Z,19.80
2019-06-20T06:36:10.869Z,20.20
2019-06-20T06:41:16.282Z,20.10
2019-06-20T06:46:21.656Z,20.20
2019-06-20T06:51:27.065Z,20.30
2019-06-20T06:56:32.405Z,20.10
2019-06-20T07:01:38.454Z,19.90
2019-06-20T07:06:43.845Z,19.60
2019-06-20T07:11:49.183Z,19.70
2019-06-20T07:17:00.272Z,19.60
2019-06-20T07:22:01.621Z,19.60
2019-06-20T07:27:07.965Z,19.70
2019-06-20T07:32:13.315Z,20.20
2019-06-20T07:37:18.641Z,20.70
2019-06-20T07:42:23.956Z,20.40
2019-06-20T07:47:29.291Z,20.90
2019-06-20T07:52:35.096Z,21.60
2019-06-20T07:57:42.635Z,21.20
2019-06-20T08:02:47.936Z,21.30
2019-06-20T08:07:53.455Z,21.10
2019-06-20T08:12:59.055Z,21.40
2019-06-20T08:18:04.542Z,22.10
2019-06-20T08:23:09.942Z,21.70
2019-06-20T08:28:15.284Z,21.70
2019-06-20T08:33:20.643Z,21.60
2019-06-20T08:38:25.963Z,22.10
2019-06-20T08:43:31.296Z,23.60
2019-06-20T08:48:36.825Z,21.10
2019-06-20T08:53:42.186Z,23.50
2019-06-20T08:58:47.496Z,23.00
2019-06-20T09:03:55.144Z,23.20
2019-06-20T09:09:00.086Z,22.70
2019-06-20T09:14:06.688Z,23.40
2019-06-20T09:19:12.050Z,25.00
2019-06-20T09:24:17.415Z,23.30
2019-06-20T09:29:22.744Z,22.60
2019-06-20T09:34:28.140Z,21.90
2019-06-20T09:39:33.556Z,22.20
2019-06-20T09:44:39.057Z,21.70
2019-06-20T09:49:44.480Z,21.40
2019-06-20T09:54:50.179Z,21.60
2019-06-20T10:00:05.920Z,22.00
2019-06-20T10:05:02.784Z,22.40
2019-06-20T10:10:08.756Z,21.70
2019-06-20T10:15:21.420Z,21.40
2019-06-20T10:20:27.063Z,21.30
2019-06-20T10:25:32.380Z,21.30
2019-06-20T10:30:37.994Z,20.80
2019-06-20T10:35:45.130Z,21.00
2019-06-20T10:40:50.426Z,21.10
2019-06-20T10:45:56.700Z,21.60
2019-06-20T10:51:19.406Z,21.60
2019-06-20T10:56:24.850Z,21.90
2019-06-20T11:01:30.513Z,22.20
2019-06-20T11:06:36.217Z,23.00
2019-06-20T11:11:43.077Z,22.50
2019-06-20T11:16:49.309Z,22.50
2019-06-20T11:21:54.986Z,22.40
2019-06-20T11:27:04.972Z,23.10
2019-06-20T11:32:40.989Z,23.50
2019-06-20T11:38:21.726Z,25.70
2019-06-20T11:43:38.150Z,24.30
2019-06-20T11:49:19.213Z,24.60
2019-06-20T11:54:25.319Z,23.80
2019-06-20T11:59:52.186Z,24.70
2019-06-20T12:05:24.415Z,25.10
2019-06-20T12:10:29.932Z,26.60
2019-06-20T12:15:35.477Z,27.20
2019-06-20T12:26:08.424Z,26.30
2019-06-20T12:31:19.578Z,28.10
2019-06-20T12:36:20.738Z,26.10
2019-06-20T12:41:26.060Z,28.70
2019-06-20T12:46:31.512Z,27.70
2019-06-20T12:51:39.119Z,25.40
2019-06-20T12:56:46.239Z,25.30
2019-06-20T13:01:51.715Z,25.60
2019-06-20T13:06:57.032Z,25.40
2019-06-20T13:12:02.331Z,24.80
2019-06-20T13:17:07.778Z,24.50
2019-06-20T13:22:13.221Z,24.30
2019-06-20T13:27:18.601Z,24.00
2019-06-20T13:32:24.416Z,23.80
2019-06-20T13:37:29.732Z,23.80
2019-06-20T13:42:35.117Z,23.80
2019-06-20T13:47:41.529Z,23.70
2019-06-20T13:52:49.148Z,23.50
2019-06-20T13:57:54.013Z,23.60
2019-06-20T14:02:59.308Z,23.30
2019-06-20T14:08:04.732Z,23.50
2019-06-20T14:13:18.597Z,22.90
2019-06-20T14:18:17.095Z,24.60
2019-06-20T14:23:22.524Z,25.60
2019-06-20T14:28:28.047Z,26.40
2019-06-20T14:33:33.496Z,25.30
2019-06-20T14:38:38.912Z,24.90
2019-06-20T14:43:46.028Z,24.50
2019-06-20T14:48:52.632Z,24.60
2019-06-20T14:53:58.037Z,24.00
2019-06-20T14:59:03.435Z,24.00
2019-06-20T15:04:08.882Z,23.90
2019-06-20T15:09:14.435Z,23.80
2019-06-20T15:14:20.616Z,23.90
2019-06-20T15:19:27.138Z,23.40
2019-06-20T15:24:35.059Z,23.50
2019-06-20T15:29:43.291Z,23.30
2019-06-20T15:34:51.438Z,23.30
2019-06-20T15:39:59.022Z,23.20
2019-06-20T15:45:08.369Z,23.00
2019-06-20T15:50:15.927Z,22.90
2019-06-20T15:55:22.676Z,22.90
2019-06-20T16:00:29.199Z,22.80
2019-06-20T16:05:35.240Z,22.70
2019-06-20T16:10:41.266Z,22.60
2019-06-20T16:15:46.635Z,22.50
2019-06-20T16:20:52.088Z,22.30
2019-06-20T16:25:57.417Z,22.30
2019-06-20T16:31:08.666Z,20.40
2019-06-20T16:36:12.895Z,19.00
2019-06-20T16:58:42.989Z,17.30
2019-06-20T17:03:48.489Z,17.30
2019-06-20T17:08:54.016Z,17.20
2019-06-20T17:13:59.750Z,17.40
2019-06-20T17:19:06.049Z,17.30
2019-06-20T17:24:11.581Z,17.40
2019-06-20T17:29:17.290Z,17.50
2019-06-20T17:34:22.766Z,17.40
2019-06-20T17:39:29.415Z,17.40
2019-06-20T17:44:35.227Z,17.50
2019-06-20T17:49:40.727Z,17.50
2019-06-20T17:54:46.223Z,17.40
2019-06-20T17:59:51.923Z,17.50
2019-06-20T18:04:57.395Z,17.40
2019-06-20T18:10:02.745Z,17.40
2019-06-20T18:15:08.936Z,17.60
2019-06-20T18:20:14.728Z,17.90
2019-06-20T18:25:20.482Z,17.70
2019-06-20T18:30:34.683Z,17.40
2019-06-20T18:35:40.153Z,17.50
2019-06-20T18:40:45.787Z,18.00
2019-06-20T18:45:51.115Z,18.20
2019-06-20T18:50:56.469Z,17.50
2019-06-20T18:56:01.847Z,17.60
2019-06-20T19:01:07.297Z,17.70
2019-06-20T19:06:13.754Z,17.90
2019-06-20T19:11:20.067Z,17.90
2019-06-20T19:16:26.468Z,17.80
2019-06-20T19:21:31.812Z,17.60
2019-06-20T19:26:37.107Z,17.70
2019-06-20T19:31:42.501Z,17.60
2019-06-20T19:36:47.877Z,17.40
2019-06-20T19:41:53.267Z,17.40
2019-06-20T19:46:58.601Z,17.30
2019-06-20T19:52:04.159Z,17.20
2019-06-20T19:57:09.573Z,17.20
2019-06-20T20:02:16.040Z,17.20
2019-06-20T20:07:22.424Z,17.10
2019-06-20T20:12:28.055Z,17.20
2019-06-20T20:17:33.597Z,17.30
2019-06-20T20:22:38.896Z,17.20
2019-06-20T20:27:44.243Z,17.10
2019-06-20T20:32:49.619Z,17.00
2019-06-20T20:37:54.991Z,17.00
2019-06-20T20:43:00.613Z,16.90
2019-06-20T20:48:06.199Z,16.90
2019-06-20T20:53:12.334Z,16.90
2019-06-20T20:58:20.865Z,16.80
2019-06-20T21:03:26.388Z,16.90
2019-06-20T21:08:32.890Z,16.90
2019-06-20T21:13:38.567Z,16.80
2019-06-20T21:18:44.010Z,16.70
2019-06-20T21:23:49.410Z,16.70
2019-06-20T21:28:54.955Z,16.60
2019-06-20T21:34:00.320Z,16.60
2019-06-20T21:39:08.132Z,16.60
2019-06-20T21:44:14.006Z,16.60
2019-06-20T21:49:19.735Z,16.50
2019-06-20T21:54:25.202Z,16.30
2019-06-20T21:59:30.928Z,16.10
2019-06-20T22:04:53.505Z,16.10
2019-06-20T22:09:45.823Z,16.10
2019-06-20T22:14:52.581Z,16.20
2019-06-20T22:20:02.222Z,16.20
2019-06-20T22:25:10.684Z,16.20
2019-06-20T22:30:17.468Z,16.00
2019-06-20T22:35:22.992Z,15.90
2019-06-20T22:40:28.566Z,15.80
2019-06-20T22:45:34.172Z,15.80
2019-06-20T22:50:40.128Z,15.70
2019-06-20T22:55:45.777Z,15.60
2019-06-20T23:00:52.347Z,15.50
2019-06-20T23:05:57.759Z,15.40
2019-06-20T23:11:03.406Z,15.40
2019-06-20T23:16:08.731Z,15.40
2019-06-20T23:21:14.346Z,15.50
2019-06-20T23:26:19.750Z,15.50
2019-06-20T23:31:25.299Z,15.50
2019-06-20T23:36:30.611Z,15.50
2019-06-20T23:41:36.060Z,15.40
2019-06-20T23:46:41.586Z,15.40
2019-06-20T23:51:52.576Z,15.40
2019-06-20T23:56:57.886Z,15.50
